EJU225 LDRI-LFPO
Flight info
| Callsign | EJU225 |
|---|---|
| Flight time | N/A |
| Altitude | 38000 |
| Route | ALIVO DCT PENEP DCT ARNOS DCT ERKIR L608 KPT L856 AKABI/N0442F370 L856 ROMIR/N0442F380 DCT EPL |
| Aircraft | A319/M-SDE3FGHIRWY/LB1 |
Departure
| Time | 2026-04-26 12:05 |
|---|---|
| Airport | Rijeka Airport (LDRI) |
Arrival
| Time | N/A |
|---|---|
| Airport | Paris-Orly Airport (LFPO) |
| Time | Latitude | Longitude | Altitude | Speed | Heading |
|---|---|---|---|---|---|
| 2026-04-26 11:49 | 45.21954 | 14.57101 | 288 ft | 0 kts | 103° |
| 2026-04-26 11:53 | 45.21954 | 14.57100 | 288 ft | 0 kts | 103° |
| 2026-04-26 11:56 | 45.21954 | 14.57101 | 288 ft | 0 kts | 103° |
| 2026-04-26 11:59 | 45.21945 | 14.57102 | 292 ft | 2 kts | 181° |
| 2026-04-26 12:00 | 45.21930 | 14.57084 | 288 ft | 5 kts | 216° |
| 2026-04-26 12:00 | 45.21891 | 14.57085 | 288 ft | 7 kts | 147° |
| 2026-04-26 12:00 | 45.21854 | 14.57125 | 290 ft | 7 kts | 142° |
| 2026-04-26 12:00 | 45.21815 | 14.57167 | 288 ft | 7 kts | 142° |
| 2026-04-26 12:01 | 45.21769 | 14.57200 | 291 ft | 8 kts | 172° |
| 2026-04-26 12:01 | 45.21713 | 14.57199 | 288 ft | 8 kts | 183° |
| 2026-04-26 12:01 | 45.21653 | 14.57194 | 288 ft | 9 kts | 184° |
| 2026-04-26 12:01 | 45.21576 | 14.57186 | 287 ft | 13 kts | 182° |
| 2026-04-26 12:02 | 45.21495 | 14.57255 | 286 ft | 15 kts | 143° |
| 2026-04-26 12:02 | 45.21399 | 14.57352 | 281 ft | 19 kts | 141° |
| 2026-04-26 12:02 | 45.21287 | 14.57470 | 276 ft | 22 kts | 147° |
| 2026-04-26 12:02 | 45.21146 | 14.57615 | 269 ft | 27 kts | 142° |
| 2026-04-26 12:03 | 45.20987 | 14.57779 | 263 ft | 29 kts | 144° |
| 2026-04-26 12:03 | 45.20825 | 14.57939 | 259 ft | 23 kts | 159° |
| 2026-04-26 12:03 | 45.20757 | 14.57984 | 258 ft | 6 kts | 75° |
| 2026-04-26 12:03 | 45.20791 | 14.57986 | 258 ft | 3 kts | 318° |
| 2026-04-26 12:04 | 45.20808 | 14.57966 | 258 ft | 5 kts | 322° |
| 2026-04-26 12:04 | 45.20909 | 14.57861 | 262 ft | 46 kts | 323° |
| 2026-04-26 12:04 | 45.21369 | 14.57380 | 281 ft | 114 kts | 323° |
| 2026-04-26 12:04 | 45.22148 | 14.56572 | 476 ft | 148 kts | 323° |
| 2026-04-26 12:05 | 45.22971 | 14.55773 | 1315 ft | 139 kts | 326° |
| 2026-04-26 12:05 | 45.23780 | 14.55056 | 1981 ft | 137 kts | 332° |
| 2026-04-26 12:05 | 45.24588 | 14.54407 | 2623 ft | 130 kts | 332° |
| 2026-04-26 12:05 | 45.25417 | 14.53804 | 3051 ft | 140 kts | 334° |
| 2026-04-26 12:06 | 45.26252 | 14.52945 | 3360 ft | 162 kts | 305° |
| 2026-04-26 12:06 | 45.26825 | 14.51428 | 3653 ft | 186 kts | 298° |
| 2026-04-26 12:06 | 45.27454 | 14.49686 | 3977 ft | 209 kts | 299° |
| 2026-04-26 12:06 | 45.28155 | 14.47760 | 4185 ft | 238 kts | 299° |
| 2026-04-26 12:07 | 45.28953 | 14.45580 | 4733 ft | 256 kts | 299° |
| 2026-04-26 12:07 | 45.29797 | 14.43308 | 5567 ft | 263 kts | 302° |
| 2026-04-26 12:07 | 45.30820 | 14.41156 | 6550 ft | 263 kts | 308° |
| 2026-04-26 12:07 | 45.32074 | 14.39284 | 7485 ft | 262 kts | 326° |
| 2026-04-26 12:08 | 45.33710 | 14.38219 | 8485 ft | 259 kts | 346° |
| 2026-04-26 12:08 | 45.35496 | 14.37997 | 9514 ft | 260 kts | 5° |
| 2026-04-26 12:08 | 45.37261 | 14.38556 | 10422 ft | 261 kts | 15° |
| 2026-04-26 12:08 | 45.39017 | 14.39269 | 11297 ft | 263 kts | 14° |
| 2026-04-26 12:09 | 45.40790 | 14.39981 | 12103 ft | 267 kts | 14° |
| 2026-04-26 12:09 | 45.42531 | 14.40955 | 12890 ft | 273 kts | 29° |
| 2026-04-26 12:09 | 45.44014 | 14.42679 | 13658 ft | 281 kts | 46° |
| 2026-04-26 12:09 | 45.45104 | 14.45132 | 13939 ft | 308 kts | 65° |
| 2026-04-26 12:10 | 45.45864 | 14.48120 | 14146 ft | 332 kts | 68° |
| 2026-04-26 12:10 | 45.46659 | 14.51303 | 14510 ft | 347 kts | 68° |
| 2026-04-26 12:10 | 45.47476 | 14.54572 | 15132 ft | 353 kts | 69° |
| 2026-04-26 12:10 | 45.48302 | 14.57882 | 15829 ft | 356 kts | 69° |
| 2026-04-26 12:11 | 45.49138 | 14.61212 | 16562 ft | 358 kts | 69° |
| 2026-04-26 12:11 | 45.50239 | 14.64386 | 17246 ft | 360 kts | 53° |
| 2026-04-26 12:11 | 45.51971 | 14.66939 | 17950 ft | 359 kts | 35° |
| 2026-04-26 12:11 | 45.54163 | 14.68614 | 18626 ft | 360 kts | 19° |
| 2026-04-26 12:12 | 45.56762 | 14.69283 | 19225 ft | 364 kts | 0° |
| 2026-04-26 12:12 | 45.59149 | 14.68835 | 19798 ft | 367 kts | 344° |
| 2026-04-26 12:12 | 45.61498 | 14.67390 | 20435 ft | 371 kts | 334° |
| 2026-04-26 12:12 | 45.63034 | 14.66294 | 20768 ft | 374 kts | 333° |
| 2026-04-26 12:13 | 45.66167 | 14.64042 | 21548 ft | 379 kts | 333° |
| 2026-04-26 12:13 | 45.68534 | 14.62331 | 22118 ft | 383 kts | 333° |
| 2026-04-26 12:13 | 45.70916 | 14.60606 | 22738 ft | 385 kts | 333° |
| 2026-04-26 12:13 | 45.73287 | 14.58894 | 23289 ft | 388 kts | 333° |
| 2026-04-26 12:14 | 45.75713 | 14.57148 | 23820 ft | 392 kts | 333° |
| 2026-04-26 12:14 | 45.78158 | 14.55388 | 24265 ft | 395 kts | 333° |
| 2026-04-26 12:14 | 45.80619 | 14.53612 | 24754 ft | 397 kts | 333° |
| 2026-04-26 12:14 | 45.83101 | 14.51818 | 25156 ft | 401 kts | 333° |
| 2026-04-26 12:15 | 45.85597 | 14.50014 | 25645 ft | 402 kts | 333° |
| 2026-04-26 12:15 | 45.88108 | 14.48201 | 26081 ft | 405 kts | 333° |
| 2026-04-26 12:15 | 45.90626 | 14.46382 | 26580 ft | 406 kts | 333° |
| 2026-04-26 12:15 | 45.93155 | 14.44552 | 26989 ft | 409 kts | 333° |
| 2026-04-26 12:16 | 45.95704 | 14.42704 | 27417 ft | 412 kts | 333° |
| 2026-04-26 12:16 | 45.98268 | 14.40842 | 27838 ft | 415 kts | 333° |
| 2026-04-26 12:16 | 46.00851 | 14.38961 | 28264 ft | 417 kts | 332° |
| 2026-04-26 12:16 | 46.03448 | 14.37066 | 28690 ft | 419 kts | 332° |
| 2026-04-26 12:17 | 46.06054 | 14.35165 | 29111 ft | 422 kts | 332° |
| 2026-04-26 12:17 | 46.08681 | 14.33247 | 29496 ft | 425 kts | 332° |
| 2026-04-26 12:17 | 46.11293 | 14.31235 | 29882 ft | 427 kts | 327° |
| 2026-04-26 12:17 | 46.13679 | 14.28686 | 30243 ft | 429 kts | 317° |
| 2026-04-26 12:18 | 46.15744 | 14.25578 | 30560 ft | 430 kts | 309° |
| 2026-04-26 12:18 | 46.17634 | 14.22217 | 30880 ft | 432 kts | 309° |
| 2026-04-26 12:18 | 46.19538 | 14.18844 | 31205 ft | 434 kts | 309° |
| 2026-04-26 12:18 | 46.21453 | 14.15461 | 31529 ft | 436 kts | 309° |
| 2026-04-26 12:19 | 46.23375 | 14.12065 | 31851 ft | 437 kts | 309° |
| 2026-04-26 12:19 | 46.25292 | 14.08669 | 32317 ft | 435 kts | 308° |
| 2026-04-26 12:19 | 46.27200 | 14.05282 | 32786 ft | 434 kts | 308° |
| 2026-04-26 12:19 | 46.29098 | 14.01907 | 33248 ft | 432 kts | 308° |
| 2026-04-26 12:20 | 46.30992 | 13.98533 | 33699 ft | 431 kts | 308° |
| 2026-04-26 12:20 | 46.32877 | 13.95168 | 34142 ft | 430 kts | 308° |
| 2026-04-26 12:20 | 46.34756 | 13.91801 | 34522 ft | 429 kts | 308° |
| 2026-04-26 12:20 | 46.36628 | 13.88447 | 34896 ft | 428 kts | 308° |
| 2026-04-26 12:21 | 46.38497 | 13.85097 | 35266 ft | 426 kts | 308° |
| 2026-04-26 12:21 | 46.40357 | 13.81757 | 35631 ft | 425 kts | 308° |
| 2026-04-26 12:21 | 46.42209 | 13.78428 | 35989 ft | 423 kts | 308° |
| 2026-04-26 12:21 | 46.44056 | 13.75105 | 36318 ft | 423 kts | 308° |
| 2026-04-26 12:22 | 46.45902 | 13.71785 | 36644 ft | 422 kts | 307° |
| 2026-04-26 12:22 | 46.47741 | 13.68477 | 36963 ft | 421 kts | 307° |
| 2026-04-26 12:22 | 46.49576 | 13.65170 | 37297 ft | 420 kts | 307° |
| 2026-04-26 12:22 | 46.51404 | 13.61867 | 37620 ft | 419 kts | 307° |
| 2026-04-26 12:23 | 46.53226 | 13.58570 | 37903 ft | 418 kts | 307° |
| 2026-04-26 12:23 | 46.54440 | 13.56394 | 38048 ft | 419 kts | 308° |
| 2026-04-26 12:23 | 46.56995 | 13.52201 | 38107 ft | 418 kts | 311° |
| 2026-04-26 12:24 | 46.61046 | 13.46164 | 38112 ft | 417 kts | 313° |
| 2026-04-26 12:24 | 46.65124 | 13.40153 | 38112 ft | 418 kts | 312° |
| 2026-04-26 12:25 | 46.70505 | 13.31964 | 38122 ft | 418 kts | 311° |
| 2026-04-26 12:25 | 46.74492 | 13.25797 | 38126 ft | 418 kts | 311° |
| 2026-04-26 12:26 | 46.78487 | 13.19627 | 38131 ft | 419 kts | 311° |
| 2026-04-26 12:26 | 46.82458 | 13.13493 | 38141 ft | 418 kts | 311° |
| 2026-04-26 12:27 | 46.86463 | 13.07306 | 38162 ft | 419 kts | 311° |
| 2026-04-26 12:27 | 46.90454 | 13.01116 | 38169 ft | 418 kts | 311° |
| 2026-04-26 12:28 | 46.94435 | 12.94921 | 38165 ft | 417 kts | 311° |
| 2026-04-26 12:28 | 46.98403 | 12.88733 | 38163 ft | 417 kts | 311° |
| 2026-04-26 12:29 | 47.02365 | 12.82553 | 38172 ft | 416 kts | 311° |
| 2026-04-26 12:30 | 47.08297 | 12.73261 | 38177 ft | 416 kts | 311° |
| 2026-04-26 12:30 | 47.12245 | 12.67053 | 38193 ft | 416 kts | 311° |
| 2026-04-26 12:31 | 47.18187 | 12.57702 | 38194 ft | 417 kts | 311° |
| 2026-04-26 12:31 | 47.22136 | 12.51441 | 38194 ft | 417 kts | 311° |
| 2026-04-26 12:32 | 47.26078 | 12.45179 | 38190 ft | 417 kts | 311° |
| 2026-04-26 12:33 | 47.31969 | 12.35827 | 38190 ft | 417 kts | 311° |
| 2026-04-26 12:33 | 47.35920 | 12.29555 | 38201 ft | 417 kts | 311° |
| 2026-04-26 12:34 | 47.39856 | 12.23264 | 38200 ft | 417 kts | 311° |
| 2026-04-26 12:34 | 47.43792 | 12.16968 | 38204 ft | 417 kts | 311° |
| 2026-04-26 12:35 | 47.47722 | 12.10665 | 38201 ft | 417 kts | 310° |
| 2026-04-26 12:35 | 47.51591 | 12.04272 | 38203 ft | 416 kts | 305° |
| 2026-04-26 12:36 | 47.54254 | 11.96765 | 38201 ft | 413 kts | 287° |
| 2026-04-26 12:36 | 47.55521 | 11.88490 | 38195 ft | 412 kts | 281° |
| 2026-04-26 12:37 | 47.56688 | 11.80169 | 38196 ft | 413 kts | 281° |
| 2026-04-26 12:37 | 47.57849 | 11.71840 | 38206 ft | 413 kts | 281° |
| 2026-04-26 12:38 | 47.59004 | 11.63503 | 38207 ft | 413 kts | 281° |
| 2026-04-26 12:38 | 47.60152 | 11.55169 | 38205 ft | 413 kts | 281° |
| 2026-04-26 12:39 | 47.61295 | 11.46831 | 38205 ft | 413 kts | 281° |
| 2026-04-26 12:39 | 47.62428 | 11.38490 | 38207 ft | 413 kts | 281° |
| 2026-04-26 12:40 | 47.63475 | 11.30110 | 38208 ft | 413 kts | 279° |
| 2026-04-26 12:40 | 47.64457 | 11.21715 | 38210 ft | 413 kts | 279° |
| 2026-04-26 12:41 | 47.65451 | 11.13326 | 38217 ft | 413 kts | 279° |
| 2026-04-26 12:41 | 47.66458 | 11.04940 | 38216 ft | 413 kts | 279° |
| 2026-04-26 12:42 | 47.67453 | 10.96545 | 38225 ft | 413 kts | 279° |
| 2026-04-26 12:42 | 47.68435 | 10.88208 | 38223 ft | 413 kts | 279° |
| 2026-04-26 12:43 | 47.69422 | 10.79819 | 38223 ft | 413 kts | 279° |
| 2026-04-26 12:43 | 47.70406 | 10.71429 | 38222 ft | 413 kts | 279° |
| 2026-04-26 12:44 | 47.71385 | 10.63035 | 38224 ft | 413 kts | 279° |
| 2026-04-26 12:44 | 47.72347 | 10.54635 | 38230 ft | 413 kts | 279° |
| 2026-04-26 12:45 | 47.73309 | 10.46234 | 38228 ft | 413 kts | 279° |
| 2026-04-26 12:45 | 47.74258 | 10.37819 | 38227 ft | 413 kts | 279° |
| 2026-04-26 12:46 | 47.74476 | 10.29323 | 38221 ft | 413 kts | 268° |
| 2026-04-26 12:46 | 47.74274 | 10.20798 | 38220 ft | 413 kts | 268° |
| 2026-04-26 12:47 | 47.74064 | 10.12278 | 38219 ft | 413 kts | 268° |
| 2026-04-26 12:47 | 47.73858 | 10.03753 | 38221 ft | 413 kts | 268° |
| 2026-04-26 12:48 | 47.73656 | 9.95225 | 38223 ft | 413 kts | 268° |
| 2026-04-26 12:48 | 47.73444 | 9.86755 | 38225 ft | 413 kts | 268° |
| 2026-04-26 12:49 | 47.73223 | 9.78237 | 38223 ft | 413 kts | 268° |
| 2026-04-26 12:49 | 47.72993 | 9.69725 | 38219 ft | 412 kts | 268° |
| 2026-04-26 12:50 | 47.72759 | 9.61207 | 38219 ft | 413 kts | 268° |
| 2026-04-26 12:50 | 47.72517 | 9.52688 | 38220 ft | 413 kts | 268° |
| 2026-04-26 12:51 | 47.72261 | 9.44166 | 38223 ft | 413 kts | 268° |
| 2026-04-26 12:51 | 47.72019 | 9.35638 | 38212 ft | 413 kts | 268° |
| 2026-04-26 12:52 | 47.71789 | 9.27113 | 38217 ft | 413 kts | 268° |
| 2026-04-26 12:52 | 47.71551 | 9.18601 | 38215 ft | 413 kts | 268° |
| 2026-04-26 12:53 | 47.71652 | 9.10090 | 38215 ft | 412 kts | 279° |
| 2026-04-26 12:53 | 47.73204 | 9.01902 | 38215 ft | 413 kts | 287° |
| 2026-04-26 12:54 | 47.74938 | 8.93769 | 38208 ft | 413 kts | 287° |
| 2026-04-26 12:54 | 47.76663 | 8.85614 | 38206 ft | 413 kts | 287° |
| 2026-04-26 12:55 | 47.78381 | 8.77463 | 38206 ft | 413 kts | 287° |
| 2026-04-26 12:55 | 47.80087 | 8.69356 | 38211 ft | 414 kts | 287° |
| 2026-04-26 12:56 | 47.81807 | 8.61186 | 38215 ft | 414 kts | 287° |
| 2026-04-26 12:56 | 47.83511 | 8.53004 | 38216 ft | 414 kts | 287° |
| 2026-04-26 12:57 | 47.85206 | 8.44823 | 38206 ft | 414 kts | 287° |
| 2026-04-26 12:57 | 47.86901 | 8.36639 | 38206 ft | 414 kts | 287° |
| 2026-04-26 12:58 | 47.89426 | 8.24331 | 38211 ft | 414 kts | 286° |
| 2026-04-26 12:58 | 47.91104 | 8.16111 | 38215 ft | 415 kts | 286° |
| 2026-04-26 12:59 | 47.92781 | 8.07887 | 38216 ft | 415 kts | 286° |
| 2026-04-26 12:59 | 47.94457 | 7.99660 | 38218 ft | 415 kts | 286° |
| 2026-04-26 13:00 | 47.96125 | 7.91425 | 38231 ft | 415 kts | 286° |